Polarstern — DBLK — position and weather

sailwx.info

Track history (hours):
 
Tides and Currents Weather Stations Pressure Air Temp Water Temp Dewpoint Dewpoint Depression Visibility Wind Speed Wind Dir Waves Ship Positions

Oceanographic research ship Polarstern (Germany)

Detailed information on ship capabilities available from University of Delaware's Ocean Information Center and ARCUS's ALIAS (Arctic Logistics Information and Support) project.

Last reported at 2019-Oct-17 15:00 UTC. Time now 2019-Oct-17 15:54 UTC.
Position N 84°48' E 132°54'.

Length 117.9 m; beam 25 m; draft 10.7 m.

Type: Other ship. MMSI: 211202460.

Wind from 340 at 2 knots

Barometer 1008.3 mb
Air temperature -14.0 ° C
Dewpoint -15.7 ° C
Water temperature -1.6 ° C

Date/timePositionNaut miles runAvg speedWind from/ knotsBaromVisibWave heightAir tempDewpointWater temp
2019-Oct-17 15:00N 84°48' E 132°54'0 0.0 340 / 21008.3 -14.0-15.7-1.6
2019-Oct-17 14:00N 84°48' E 132°54'0 0.0 350 / 21008.4 -13.8-15.7-1.7
2019-Oct-17 13:00N 84°48' E 132°54'0 0.0 320 / 21008.6 -13.7-15.5-1.7
2019-Oct-17 12:00N 84°48' E 132°54'0 0.0 320 / 21008.6 -13.6-15.1-1.5
2019-Oct-17 11:00N 84°48' E 132°54'1 0.5 040 / 41008.7 -12.3-13.8-1.7
2019-Oct-17 10:00N 84°48' E 133°00'0 0.0 010 / 21008.8 -13.0-14.6-1.8
2019-Oct-17 09:00N 84°48' E 133°00'0 0.0 040 / 41008.8 -12.8-14.2-1.7
2019-Oct-17 08:00N 84°48' E 133°00'0 0.0 040 / 61008.9 -12.8-14.9-1.7
2019-Oct-17 07:00N 84°48' E 133°00'0 0.0 050 / 61008.9 -12.1-13.2-1.7
2019-Oct-17 06:00N 84°48' E 133°00'0 0.0 070 / 61009.0 -12.7-14.2-1.6
2019-Oct-17 05:00N 84°48' E 133°00'0 0.0 060 / 121009.0 -12.6-14.1-1.6
2019-Oct-17 04:00N 84°48' E 133°00'0 0.0 060 / 121009.4 -12.5-14.0-1.6
2019-Oct-17 03:00N 84°48' E 133°00'0 0.0 060 / 141009.5 -12.5-14.1-1.7
2019-Oct-17 02:00N 84°48' E 133°00'1 0.5 050 / 101009.9 -11.6-13.3-1.7
2019-Oct-17 01:00N 84°48' E 133°06'0 0.0 050 / 141010.3 -12.4-13.8-1.7
2019-Oct-17 00:00N 84°48' E 133°06'1 0.5 050 / 81010.5 -11.0-12.4-1.7
2019-Oct-16 23:00N 84°48' E 133°12'0 0.0 060 / 161010.6 -11.9-13.4-1.7
2019-Oct-16 22:00N 84°48' E 133°12'0 0.0 040 / 101011.1 -11.3-12.9-1.7
2019-Oct-16 21:00N 84°48' E 133°12'1 0.5 040 / 81011.510.8 -12.1-13.4-1.6
2019-Oct-16 20:00N 84°48' E 133°18'0 0.0 040 / 101011.6 -12.5-14.1-1.6
2019-Oct-16 19:00N 84°48' E 133°18'0 0.0 040 / 101011.8 -13.0-14.5-1.7
2019-Oct-16 18:00N 84°48' E 133°18'0 0.0 050 / 101012.1 -13.2-14.7-1.6
2019-Oct-16 17:00N 84°48' E 133°18'0 0.0 050 / 101012.4 -13.4-15.0-1.7
2019-Oct-16 16:00N 84°48' E 133°18'1 0.5 040 / 101012.7 -13.7-15.4-1.7
2019-Oct-16 15:00N 84°48' E 133°24'0 0.0 050 / 101013.0 -14.1-15.9-1.7
2019-Oct-16 14:00N 84°48' E 133°24'0 0.0 050 / 121013.4 -14.5-16.3-1.7
2019-Oct-16 13:00N 84°48' E 133°24'1 0.5 050 / 121013.6 -15.0-16.9-1.7
2019-Oct-16 12:00N 84°48' E 133°30'0 0.0 070 / 121013.9 -15.5-17.4-1.7
2019-Oct-16 11:00N 84°48' E 133°30'1 0.5 080 / 121013.9 -15.8-17.7-1.7
2019-Oct-16 10:00N 84°48' E 133°36'0 0.0 070 / 161013.9 -16.5-18.6-1.7
2019-Oct-16 09:00N 84°48' E 133°36'1 0.5 050 / 141013.9 0.3 -16.9-19.0-1.7
2019-Oct-16 08:00N 84°48' E 133°42'0 0.0 060 / 141013.9 -17.7-19.6-1.7
2019-Oct-16 07:00N 84°48' E 133°42'0 0.0 040 / 161013.9 -17.2-19.0-1.7
2019-Oct-16 06:00N 84°48' E 133°42'0 0.0 040 / 121013.9 2.2 -16.7-18.5-1.7
2019-Oct-16 05:00N 84°48' E 133°42'1 0.5 040 / 141014.0 -16.8-18.5-1.7
2019-Oct-16 04:00N 84°48' E 133°48'0 0.0 040 / 141014.0 -16.8-18.5-1.7
2019-Oct-16 03:00N 84°48' E 133°48'0 0.0 060 / 141013.910.8 -16.3-17.9-1.7
2019-Oct-16 02:00N 84°48' E 133°48'1 0.5 060 / 141014.0 -16.4-18.2-1.7
2019-Oct-16 01:00N 84°48' E 133°54'0 0.0 050 / 161013.9 -16.3-18.3-1.7
2019-Oct-16 00:00N 84°48' E 133°54'1 0.5 050 / 171013.710.8 -16.3-18.0-1.7
2019-Oct-15 23:00N 84°48' E 134°00'1 0.5 050 / 161013.6 -16.1-17.8-1.7
2019-Oct-15 22:00N 84°48' E 134°06'0 0.0 050 / 141013.6 -15.8-17.4-1.7
2019-Oct-15 21:00N 84°48' E 134°06'0 0.0 050 / 121013.410.8 -16.1-17.8-1.7
2019-Oct-15 20:00N 84°48' E 134°06'1 0.5 050 / 121013.3 -16.8-18.5-1.7
2019-Oct-15 19:00N 84°48' E 134°12'0 0.0 050 / 101013.1 -17.3-19.3-1.7
2019-Oct-15 18:00N 84°48' E 134°12'0 0.0 050 / 121012.7 -19.2-21.5-1.6
2019-Oct-15 17:00N 84°48' E 134°12'0 0.0 050 / 81012.5 -15.7-17.6-1.6
2019-Oct-15 16:00N 84°48' E 134°12'0 0.0 040 / 121012.2 -19.0-21.3-1.7
2019-Oct-15 15:00N 84°48' E 134°12'0 0.0 040 / 161012.2 -21.8-24.1-1.7
2019-Oct-15 14:00N 84°48' E 134°12'1 0.5 040 / 161011.9 -22.2-24.3-1.7
2019-Oct-15 13:00N 84°48' E 134°18'0 0.0 040 / 121011.6 -21.4-23.8-1.7
2019-Oct-15 12:00N 84°48' E 134°18'0 0.0 040 / 101011.3 -20.4-22.9-1.7
2019-Oct-15 11:00N 84°48' E 134°18'0 0.0 040 / 101011.3 -20.1-22.0-1.7
2019-Oct-15 10:00N 84°48' E 134°18'1 0.5 050 / 101010.9 -20.0-22.8-1.7
2019-Oct-15 09:00N 84°48' E 134°24'0 0.0 050 / 101010.610.8 -20.2-22.2-1.7
2019-Oct-15 08:00N 84°48' E 134°24'0 0.0 060 / 61010.0 -19.3-21.5-1.8
2019-Oct-15 07:00N 84°48' E 134°24'0 0.0 050 / 41009.6 -19.5-21.7-1.8
2019-Oct-15 06:00N 84°48' E 134°24'0 0.0 060 / 61009.110.8 -19.1-21.3-1.7
2019-Oct-15 05:00N 84°48' E 134°24'0 0.0 030 / 61008.8 -20.7-23.4-1.8
2019-Oct-15 04:00N 84°48' E 134°24'0 0.0 020 / 61008.5 -20.6-23.0-1.8
2019-Oct-15 03:00N 84°48' E 134°24'0 0.0 010 / 61008.110.8 -20.6-23.1-1.8
2019-Oct-15 02:00N 84°48' E 134°24'0 0.0 360 / 61007.9 -21.0-23.4-1.8
2019-Oct-15 01:00N 84°48' E 134°24'0 0.0 340 / 41007.8 -20.9-23.2-1.8
2019-Oct-15 00:00N 84°48' E 134°24'0 0.0 330 / 61007.710.8 -20.7-23.1-1.7
2019-Oct-14 23:00N 84°48' E 134°24'0 0.0 320 / 41007.3 -20.4-22.5-1.7
2019-Oct-14 22:00N 84°48' E 134°24'0 0.0 330 / 61007.1 -20.9-23.1-1.6
2019-Oct-14 21:00N 84°48' E 134°24'0 0.0 340 / 61006.8 5.4 -21.2-23.5-1.6
2019-Oct-14 20:00N 84°48' E 134°24'0 0.0 330 / 81006.5 -21.7-24.1-1.7
2019-Oct-14 19:00N 84°48' E 134°24'0 0.0 330 / 61006.3 -21.6-24.1-1.7
2019-Oct-14 18:00N 84°48' E 134°24'0 0.0 340 / 81006.1 -21.3-23.7-1.7
2019-Oct-14 17:00N 84°48' E 134°24'0 0.0 340 / 101005.9 -21.5-23.9-1.6
2019-Oct-14 16:00N 84°48' E 134°24'0 0.0 340 / 81005.9 -21.1-23.7-1.6
2019-Oct-14 15:00N 84°48' E 134°24'0 0.0 340 / 101005.6 -20.4-22.9-1.7
2019-Oct-14 14:00N 84°48' E 134°24'0 0.0 350 / 121005.4 -20.0-22.4-1.7
2019-Oct-14 13:00N 84°48' E 134°24'0 0.0 350 / 121005.5 -19.2-21.7-1.7
2019-Oct-14 12:00N 84°48' E 134°24'1 0.5 340 / 121005.510.8 -18.2-20.8-1.7
2019-Oct-14 11:00N 84°48' E 134°30'0 0.0 350 / 141005.2 -16.6-19.2-1.7
2019-Oct-14 10:00N 84°48' E 134°30'0 0.0 350 / 171004.7 -14.1-16.2-1.7
2019-Oct-14 09:00N 84°48' E 134°30'0 0.0 350 / 161004.310.8 -14.1-16.0-1.7
2019-Oct-14 08:00N 84°48' E 134°30'0 0.0 350 / 161003.6 -15.4-16.9-1.7
2019-Oct-14 07:00N 84°48' E 134°30'1 0.5 350 / 171003.1 -16.5-18.3-1.7
2019-Oct-14 06:00N 84°48' E 134°36'0 0.0 350 / 171002.610.8 -16.0-17.8-1.7
2019-Oct-14 05:00N 84°48' E 134°36'0 0.0 350 / 171002.1 -15.6-17.4-1.7
2019-Oct-14 04:00N 84°48' E 134°36'0 0.0 340 / 141001.9 -15.0-16.7-1.7
2019-Oct-14 03:00N 84°48' E 134°36'0 0.0 340 / 171001.2 5.4 -14.7-16.5-1.7
2019-Oct-14 02:00N 84°48' E 134°36'1 0.5 340 / 121000.8 -15.0-16.9-1.7
2019-Oct-14 01:00N 84°48' E 134°42'0 0.0 340 / 141000.4 -14.9-16.6-1.7
2019-Oct-14 00:00N 84°48' E 134°42'0 0.0 350 / 161000.110.8 -14.7-16.5-1.7
2019-Oct-13 23:00N 84°48' E 134°42'1 0.5 350 / 16999.8 -14.3-16.1-1.7
2019-Oct-13 22:00N 84°48' E 134°48'0 0.0 360 / 16999.5 -14.2-15.8-1.7
2019-Oct-13 21:00N 84°48' E 134°48'0 0.0 360 / 17999.010.8 -14.6-16.2-1.7
2019-Oct-13 20:00N 84°48' E 134°48'0 0.0 340 / 16998.8 -14.8-16.5-1.7
2019-Oct-13 19:00N 84°48' E 134°48'0 0.0 330 / 12998.7 -16.2-17.7-1.7
2019-Oct-13 18:00N 84°48' E 134°48'0 0.0 320 / 10998.8 -18.3-20.4-1.7
2019-Oct-13 17:00N 84°48' E 134°48'0 0.0 320 / 8999.3 -20.0-22.2-1.7
2019-Oct-13 16:00N 84°48' E 134°48'0 0.0 310 / 6999.9 -21.3-23.5-1.7
2019-Oct-13 15:00N 84°48' E 134°48'0 0.0 310 / 61000.4 -22.4-24.9-1.7
2019-Oct-13 14:00N 84°48' E 134°48'0 0.0 320 / 61001.1 -23.7-26.4-1.7
2019-Oct-13 13:00N 84°48' E 134°48'0 0.0 320 / 61001.4 -23.5-26.3-1.7
2019-Oct-13 12:00N 84°48' E 134°48'0 0.0 330 / 41001.8 -24.2-26.8-1.7
2019-Oct-13 11:00N 84°48' E 134°48'1 0.5 340 / 81001.9 -25.0-27.8-1.7
2019-Oct-13 10:00N 84°48' E 134°54'6 6.0 010 / 101001.9 -24.9-27.7-1.7
2019-Oct-13 09:00N 84°54' E 134°54'0 0.0 020 / 121001.810.8 -24.3-27.1-1.7
2019-Oct-13 08:00N 84°54' E 134°54'1 0.5 030 / 121001.4 -23.8-26.3-1.7
2019-Oct-13 07:00N 84°54' E 135°00'0 0.0 020 / 141001.2 -23.2-25.7-1.7
2019-Oct-13 06:00N 84°54' E 135°00'0 0.0 030 / 121001.310.8 -22.3-25.2-1.7
2019-Oct-13 05:00N 84°54' E 135°00'1 0.5 030 / 101001.1 -20.6-23.2-1.7
2019-Oct-13 04:00N 84°54' E 135°06'0 0.0 030 / 81001.0 -21.5-23.9-1.7
2019-Oct-13 03:00N 84°54' E 135°06'0 0.0 040 / 61000.910.8 -22.9-25.3-1.7
2019-Oct-13 02:00N 84°54' E 135°06'1 0.5 040 / 81000.8 -22.1-24.9-1.7
2019-Oct-13 01:00N 84°54' E 135°12'0 0.0 060 / 81000.2 -19.0-21.5-1.7
2019-Oct-13 00:00N 84°54' E 135°12'1 0.5 060 / 101000.110.8 -16.6-18.4-1.7
2019-Oct-12 23:00N 84°54' E 135°18'0 0.0 060 / 6999.6 -12.6-14.4-1.7
2019-Oct-12 22:00N 84°54' E 135°18'1 0.5 050 / 10999.2 -13.2-14.5-1.7
2019-Oct-12 21:00N 84°54' E 135°24'0 0.0 050 / 12998.710.8 -14.5-16.4-1.7
2019-Oct-12 20:00N 84°54' E 135°24'0 0.0 050 / 8998.5 -16.5-17.9-1.7
2019-Oct-12 19:00N 84°54' E 135°24'0 0.0 050 / 8998.3 -16.7-18.4-1.7
2019-Oct-12 18:00N 84°54' E 135°24'1 0.5 050 / 14997.8 -16.1-18.0-1.7
2019-Oct-12 17:00N 84°54' E 135°30'0 0.0 060 / 14997.6 -15.3-17.5-1.7
2019-Oct-12 16:00N 84°54' E 135°30'0 0.0 050 / 14997.4 -15.5-17.2-1.7
2019-Oct-12 15:00N 84°54' E 135°30'1 0.5 060 / 16997.2 -15.4-17.4-1.7
2019-Oct-12 14:00N 84°54' E 135°36'0 0.0 060 / 14997.1 -15.3-17.0-1.7
2019-Oct-12 13:00N 84°54' E 135°36'1 0.5 070 / 16996.8 -15.2-16.6-1.7
2019-Oct-12 12:00N 84°54' E 135°42'0 0.0 070 / 16997.2 -15.3-16.7-1.7
2019-Oct-12 11:00N 84°54' E 135°42'1 0.5 070 / 17997.4 -15.0-16.6-1.7
2019-Oct-12 10:00N 84°54' E 135°48'0 0.0 080 / 16997.8 -14.6-16.0-1.6
2019-Oct-12 09:00N 84°54' E 135°48'0 0.0 100 / 14998.2 5.4 -12.8-13.9-1.7
2019-Oct-12 08:00N 84°54' E 135°48'0 0.0 100 / 12998.7 -12.0-13.6-1.6
2019-Oct-12 07:00N 84°54' E 135°48'6 6.0 120 / 12999.5 -10.6-11.7-1.6
2019-Oct-12 06:00N 84°48' E 135°48'0 0.0 130 / 121000.4 5.4 -10.5-11.6-1.6
2019-Oct-12 05:00N 84°48' E 135°48'0 0.0 140 / 121001.6 -10.8-12.1-1.6
2019-Oct-12 04:00N 84°48' E 135°48'0 0.0 150 / 121002.9 -11.4-12.9-1.7
2019-Oct-12 03:00N 84°48' E 135°48'0 0.0 150 / 101003.827.0 -11.9-13.2-1.7
2019-Oct-12 02:00N 84°48' E 135°48'0 0.0 170 / 101004.6 -11.7-12.9-1.6
2019-Oct-12 01:00N 84°48' E 135°48'0 0.0 160 / 81005.6 -11.0-12.3-1.6
2019-Oct-12 00:00N 84°48' E 135°48'0 0.0 170 / 81006.5 0.3 -11.5-12.9-1.7
2019-Oct-11 23:00N 84°48' E 135°48'0 0.0 210 / 21007.8 -11.7-13.1-1.7
2019-Oct-11 22:00N 84°48' E 135°48'0 0.0 260 / 41008.2 -12.4-13.8-1.7
2019-Oct-11 21:00N 84°48' E 135°48'0 0.0 270 / 61008.827.0 -13.1-14.6-1.6
2019-Oct-11 20:00N 84°48' E 135°48'0 0.0 290 / 81009.3 -13.4-15.0-1.7
2019-Oct-11 19:00N 84°48' E 135°48'0 0.0 280 / 101009.7 -13.9-15.4-1.7
2019-Oct-11 18:00N 84°48' E 135°48'0 0.0 290 / 101010.0 -13.5-15.5-1.7
2019-Oct-11 17:00N 84°48' E 135°48'1 0.5 270 / 121010.3 -12.8-14.5-1.7
2019-Oct-11 16:00N 84°48' E 135°42'0 0.0 300 / 121010.7 -11.5-13.1-1.7
2019-Oct-11 15:00N 84°48' E 135°42'0 0.0 300 / 161011.0 -11.3-12.9-1.7
2019-Oct-11 14:00N 84°48' E 135°42'0 0.0 300 / 161011.3 -12.0-13.4-1.7
2019-Oct-11 13:00N 84°48' E 135°42'0 0.0 310 / 141011.7 -12.5-13.8-1.7
2019-Oct-11 12:00N 84°48' E 135°42'6 2.0 310 / 121011.9 -13.0-14.3-1.7
2019-Oct-11 09:00N 84°54' E 135°42'1 0.5 320 / 141012.127.0 -14.8-16.4-1.7
2019-Oct-11 08:00N 84°54' E 135°36'0 0.0 320 / 161012.2 -14.7-16.5-1.7
2019-Oct-11 07:00N 84°54' E 135°36'0 0.0 310 / 171011.8 -15.2-17.2-1.7
2019-Oct-11 06:00N 84°54' E 135°36'1 0.5 300 / 171011.927.0 -15.2-17.2-1.7
2019-Oct-11 05:00N 84°54' E 135°30'0 0.0 290 / 161012.3 -15.9-17.6-1.7
2019-Oct-11 04:00N 84°54' E 135°30'0 0.0 300 / 161012.5 -16.7-18.9-1.7
2019-Oct-11 03:00N 84°54' E 135°30'0 0.0 320 / 121012.827.0 -16.7-18.8-1.7
2019-Oct-11 02:00N 84°54' E 135°30'0 0.0 320 / 121012.7 -16.8-18.7-1.7
2019-Oct-11 01:00N 84°54' E 135°30'1 0.5 310 / 101012.8 -16.6-18.3-1.7
2019-Oct-11 00:00N 84°54' E 135°24'0 0.0 300 / 141012.910.8 -15.7-17.5-1.7
2019-Oct-10 23:00N 84°54' E 135°24'0 0.0 300 / 161013.1 -15.6-17.6-1.7
2019-Oct-10 22:00N 84°54' E 135°24'1 0.5 280 / 141013.5 -14.9-16.6-1.7
2019-Oct-10 21:00N 84°54' E 135°18'0 0.0 270 / 141013.910.8 -14.9-16.8-1.7
2019-Oct-10 20:00N 84°54' E 135°18'0 0.0 290 / 121014.4 -15.2-17.0-1.7
2019-Oct-10 19:00N 84°54' E 135°18'1 0.5 280 / 141014.5 -14.2-15.7-1.6
2019-Oct-10 18:00N 84°54' E 135°12'0 0.0 270 / 101014.9 -14.2-15.9-1.7
2019-Oct-10 17:00N 84°54' E 135°12'0 0.0 290 / 81015.4 -15.6-17.2-1.7
2019-Oct-10 16:00N 84°54' E 135°12'0 0.0 330 / 81015.5 -16.4-18.3-1.7
2019-Oct-10 15:00N 84°54' E 135°12'0 0.0 350 / 61015.5 -15.7-17.4-1.7
2019-Oct-10 14:00N 84°54' E 135°12'0 0.0 360 / 61015.4 -14.8-16.4-1.7
2019-Oct-10 13:00N 84°54' E 135°12'1 0.5 360 / 101015.1 -13.6-15.5-1.7
2019-Oct-10 12:00N 84°54' E 135°18'0 0.0 360 / 101014.6 -13.3-14.8-1.7
2019-Oct-10 11:00N 84°54' E 135°18'0 0.0 020 / 101014.3 -13.7-15.1-1.7
2019-Oct-10 10:00N 84°54' E 135°18'0 0.0 020 / 121013.8 -12.7-14.4-1.7
2019-Oct-10 09:00N 84°54' E 135°18'1 0.5 040 / 121013.327.0 -13.2-14.4-1.7
2019-Oct-10 08:00N 84°54' E 135°24'0 0.0 050 / 141012.7 -13.3-15.1-1.7
2019-Oct-10 07:00N 84°54' E 135°24'0 0.0 060 / 121012.1 -12.9-14.6-1.7
2019-Oct-10 06:00N 84°54' E 135°24'0 0.0 060 / 141011.510.8 -10.8-12.0-1.7
2019-Oct-10 05:00N 84°54' E 135°24'1 0.5 060 / 161010.4 -11.2-12.3-1.7
2019-Oct-10 04:00N 84°54' E 135°30'0 0.0 060 / 161009.5 -10.1-11.2-1.7
2019-Oct-10 03:00N 84°54' E 135°30'1 0.5 060 / 141008.910.8 -9.7-11.1-1.7
2019-Oct-10 02:00N 84°54' E 135°36'0 0.0 060 / 121008.3 -9.4-10.5-1.7
2019-Oct-10 01:00N 84°54' E 135°36'1 1.1 060 / 141007.7 -11.5-12.7-1.7
2019-Oct-10 00:00N 84°54' E 135°48'1 0.5 060 / 121007.4 2.2 -13.1-14.2-1.7
2019-Oct-09 23:00N 84°54' E 135°54'1 0.0 070 / 81007.1 -14.9-16.6-1.7
2019-Oct-09 10:00N 84°54' E 136°00'0 0.0 010 / 41007.5 -12.2-13.6-1.7
2019-Oct-09 09:00N 84°54' E 136°00'1 0.5 360 / 41007.427.0 -12.8-13.9-1.7
2019-Oct-09 08:00N 84°54' E 135°54'0 0.0 360 / 61007.3 -13.3-14.9-1.6
2019-Oct-09 07:00N 84°54' E 135°54'1 0.5 360 / 61007.0 -13.4-15.0-1.7
2019-Oct-09 06:00N 84°54' E 136°00'0 0.0 360 / 81006.9 5.4 -13.0-14.6-1.7
2019-Oct-09 05:00N 84°54' E 136°00'0 0.0 360 / 101007.1 -12.1-13.4-1.7
2019-Oct-09 04:00N 84°54' E 136°00'0 0.0 360 / 121006.5 -11.6-12.7-1.7
2019-Oct-09 03:00N 84°54' E 136°00'0 0.0 010 / 121006.127.0 -10.2-11.5-1.7
2019-Oct-09 02:00N 84°54' E 136°00'1 0.5 360 / 121006.3 -8.8-10.0-1.7
2019-Oct-09 01:00N 84°54' E 136°06'0 0.0 360 / 121005.5 -8.1-8.7-1.7
2019-Oct-09 00:00N 84°54' E 136°06'0 0.0 350 / 81005.4 -8.2-9.1-1.7
2019-Oct-08 23:00N 84°54' E 136°06'1 0.5 360 / 121005.2 -8.1-9.2-1.7
2019-Oct-08 22:00N 84°54' E 136°12'0 0.0 350 / 101005.0 -7.8-8.5-1.7
2019-Oct-08 21:00N 84°54' E 136°12'0 0.0 350 / 121004.7 1.1 -7.7-8.7-1.7
2019-Oct-08 20:00N 84°54' E 136°12'0 0.0 350 / 121004.3 -7.9-8.8-1.7
2019-Oct-08 19:00N 84°54' E 136°12'0 0.0 340 / 121004.0 -8.0-8.8-1.7
2019-Oct-08 18:00N 84°54' E 136°12'0 0.0 330 / 121003.6 -8.5-9.4-1.7
2019-Oct-08 17:00N 84°54' E 136°12'0 0.0 330 / 121003.4 -8.5-9.3-1.7
2019-Oct-08 16:00N 84°54' E 136°12'0 0.0 340 / 141003.2 -8.0-9.0-1.7
2019-Oct-08 15:00N 84°54' E 136°12'0 0.0 330 / 121003.0 -7.6-8.3-1.7
2019-Oct-08 14:00N 84°54' E 136°12'6 6.0 340 / 141002.9 -7.0-7.9-1.7
2019-Oct-08 13:00N 85°00' E 136°12'0 0.0 330 / 161002.6 -6.2-7.5-1.7
2019-Oct-08 12:00N 85°00' E 136°12'0 0.0 330 / 161002.627.0 -5.3-6.6-1.7
2019-Oct-08 11:00N 85°00' E 136°12'0 0.0 340 / 171002.5 -4.1-4.6-1.7
2019-Oct-08 10:00N 85°00' E 136°12'0 0.0 310 / 191002.5 -2.0-2.4-1.7
2019-Oct-08 09:00N 85°00' E 136°12'0 0.0 290 / 231002.5 1.1 -2.4-2.7-1.7
2019-Oct-08 08:00N 85°00' E 136°12'1 0.5 290 / 251003.0 -2.5-2.9-1.7
2019-Oct-08 07:00N 85°00' E 136°06'1 0.5 290 / 271003.4 -3.0-3.2-1.7
2019-Oct-08 06:00N 85°00' E 136°00'0 0.0 280 / 291004.2 1.1 -3.3-3.6-1.7
2019-Oct-08 05:00N 85°00' E 136°00'1 0.5 280 / 291005.2 -3.4-3.8-1.7
2019-Oct-08 04:00N 85°00' E 135°54'1 0.5 280 / 311006.0 -3.8-4.4-1.7
2019-Oct-08 03:00N 85°00' E 135°48'1 0.5 270 / 311007.2 2.2 -3.9-4.4-1.7
2019-Oct-08 02:00N 85°00' E 135°42'1 0.5 270 / 291008.2 -4.2-4.8-1.7
2019-Oct-08 01:00N 85°00' E 135°36'1 0.5 270 / 291009.3 -4.6-5.2-1.7
2019-Oct-08 00:00N 85°00' E 135°30'1 1.0 270 / 271010.710.8 -6.0-6.8-1.7
2019-Oct-07 23:00N 85°00' E 135°18'0 0.0 280 / 291011.6 -6.9-7.8-1.7
2019-Oct-07 22:00N 85°00' E 135°18'1 0.5 270 / 251012.4 -7.4-8.5-1.7
2019-Oct-07 21:00N 85°00' E 135°12'1 0.5 260 / 251013.227.0 -8.0-8.9-1.7
2019-Oct-07 20:00N 85°00' E 135°06'1 0.5 270 / 251013.9 -8.1-9.4-1.7
2019-Oct-07 19:00N 85°00' E 135°00'0 0.0 270 / 231014.9 -8.5-9.3-1.7
2019-Oct-07 18:00N 85°00' E 135°00'6 6.0 270 / 231015.5 -8.8-9.7-1.7
2019-Oct-07 17:00N 85°06' E 134°54'0 0.0 270 / 211016.0 -8.9-9.9-1.7
2019-Oct-07 16:00N 85°06' E 134°54'1 0.5 280 / 211016.6 -8.9-10.1-1.6
2019-Oct-07 15:00N 85°06' E 134°48'   270 / 211017.1 -9.1-10.0-1.7
Track history (hours):
 
Tides and Currents Weather Stations Pressure Air Temp Water Temp Dewpoint Dewpoint Depression Visibility Wind Speed Wind Dir Waves Ship Positions

Oceanographic research ship Polarstern (Germany)

Detailed information on ship capabilities available from University of Delaware's Ocean Information Center and ARCUS's ALIAS (Arctic Logistics Information and Support) project.

Last reported at 2019-Oct-17 15:00 UTC. Time now 2019-Oct-17 15:54 UTC.
Position N 84°48' E 132°54'.

Length 117.9 m; beam 25 m; draft 10.7 m.

Type: Other ship. MMSI: 211202460.

Wind from 340 at 2 knots

Barometer 1008.3 mb
Air temperature -14.0 ° C
Dewpoint -15.7 ° C
Water temperature -1.6 ° C

Date/timePositionNaut miles runAvg speedWind from/ knotsBaromVisibWave heightAir tempDewpointWater temp
2019-Oct-17 15:00N 84°48' E 132°54'0 0.0 340 / 21008.3 -14.0-15.7-1.6
2019-Oct-17 14:00N 84°48' E 132°54'0 0.0 350 / 21008.4 -13.8-15.7-1.7
2019-Oct-17 13:00N 84°48' E 132°54'0 0.0 320 / 21008.6 -13.7-15.5-1.7
2019-Oct-17 12:00N 84°48' E 132°54'0 0.0 320 / 21008.6 -13.6-15.1-1.5
2019-Oct-17 11:00N 84°48' E 132°54'1 0.5 040 / 41008.7 -12.3-13.8-1.7
2019-Oct-17 10:00N 84°48' E 133°00'0 0.0 010 / 21008.8 -13.0-14.6-1.8
2019-Oct-17 09:00N 84°48' E 133°00'0 0.0 040 / 41008.8 -12.8-14.2-1.7
2019-Oct-17 08:00N 84°48' E 133°00'0 0.0 040 / 61008.9 -12.8-14.9-1.7
2019-Oct-17 07:00N 84°48' E 133°00'0 0.0 050 / 61008.9 -12.1-13.2-1.7
2019-Oct-17 06:00N 84°48' E 133°00'0 0.0 070 / 61009.0 -12.7-14.2-1.6
2019-Oct-17 05:00N 84°48' E 133°00'0 0.0 060 / 121009.0 -12.6-14.1-1.6
2019-Oct-17 04:00N 84°48' E 133°00'0 0.0 060 / 121009.4 -12.5-14.0-1.6
2019-Oct-17 03:00N 84°48' E 133°00'0 0.0 060 / 141009.5 -12.5-14.1-1.7
2019-Oct-17 02:00N 84°48' E 133°00'1 0.5 050 / 101009.9 -11.6-13.3-1.7
2019-Oct-17 01:00N 84°48' E 133°06'0 0.0 050 / 141010.3 -12.4-13.8-1.7
2019-Oct-17 00:00N 84°48' E 133°06'1 0.5 050 / 81010.5 -11.0-12.4-1.7
2019-Oct-16 23:00N 84°48' E 133°12'0 0.0 060 / 161010.6 -11.9-13.4-1.7
2019-Oct-16 22:00N 84°48' E 133°12'0 0.0 040 / 101011.1 -11.3-12.9-1.7
2019-Oct-16 21:00N 84°48' E 133°12'1 0.5 040 / 81011.510.8 -12.1-13.4-1.6
2019-Oct-16 20:00N 84°48' E 133°18'0 0.0 040 / 101011.6 -12.5-14.1-1.6
2019-Oct-16 19:00N 84°48' E 133°18'0 0.0 040 / 101011.8 -13.0-14.5-1.7
2019-Oct-16 18:00N 84°48' E 133°18'0 0.0 050 / 101012.1 -13.2-14.7-1.6
2019-Oct-16 17:00N 84°48' E 133°18'0 0.0 050 / 101012.4 -13.4-15.0-1.7
2019-Oct-16 16:00N 84°48' E 133°18'1 0.5 040 / 101012.7 -13.7-15.4-1.7
2019-Oct-16 15:00N 84°48' E 133°24'0 0.0 050 / 101013.0 -14.1-15.9-1.7
2019-Oct-16 14:00N 84°48' E 133°24'0 0.0 050 / 121013.4 -14.5-16.3-1.7
2019-Oct-16 13:00N 84°48' E 133°24'1 0.5 050 / 121013.6 -15.0-16.9-1.7
2019-Oct-16 12:00N 84°48' E 133°30'0 0.0 070 / 121013.9 -15.5-17.4-1.7
2019-Oct-16 11:00N 84°48' E 133°30'1 0.5 080 / 121013.9 -15.8-17.7-1.7
2019-Oct-16 10:00N 84°48' E 133°36'0 0.0 070 / 161013.9 -16.5-18.6-1.7
2019-Oct-16 09:00N 84°48' E 133°36'1 0.5 050 / 141013.9 0.3 -16.9-19.0-1.7
2019-Oct-16 08:00N 84°48' E 133°42'0 0.0 060 / 141013.9 -17.7-19.6-1.7
2019-Oct-16 07:00N 84°48' E 133°42'0 0.0 040 / 161013.9 -17.2-19.0-1.7
2019-Oct-16 06:00N 84°48' E 133°42'0 0.0 040 / 121013.9 2.2 -16.7-18.5-1.7
2019-Oct-16 05:00N 84°48' E 133°42'1 0.5 040 / 141014.0 -16.8-18.5-1.7
2019-Oct-16 04:00N 84°48' E 133°48'0 0.0 040 / 141014.0 -16.8-18.5-1.7
2019-Oct-16 03:00N 84°48' E 133°48'0 0.0 060 / 141013.910.8 -16.3-17.9-1.7
2019-Oct-16 02:00N 84°48' E 133°48'1 0.5 060 / 141014.0 -16.4-18.2-1.7
2019-Oct-16 01:00N 84°48' E 133°54'0 0.0 050 / 161013.9 -16.3-18.3-1.7
2019-Oct-16 00:00N 84°48' E 133°54'1 0.5 050 / 171013.710.8 -16.3-18.0-1.7
2019-Oct-15 23:00N 84°48' E 134°00'1 0.5 050 / 161013.6 -16.1-17.8-1.7
2019-Oct-15 22:00N 84°48' E 134°06'0 0.0 050 / 141013.6 -15.8-17.4-1.7
2019-Oct-15 21:00N 84°48' E 134°06'0 0.0 050 / 121013.410.8 -16.1-17.8-1.7
2019-Oct-15 20:00N 84°48' E 134°06'1 0.5 050 / 121013.3 -16.8-18.5-1.7
2019-Oct-15 19:00N 84°48' E 134°12'0 0.0 050 / 101013.1 -17.3-19.3-1.7
2019-Oct-15 18:00N 84°48' E 134°12'0 0.0 050 / 121012.7 -19.2-21.5-1.6
2019-Oct-15 17:00N 84°48' E 134°12'0 0.0 050 / 81012.5 -15.7-17.6-1.6
2019-Oct-15 16:00N 84°48' E 134°12'0 0.0 040 / 121012.2 -19.0-21.3-1.7
2019-Oct-15 15:00N 84°48' E 134°12'0 0.0 040 / 161012.2 -21.8-24.1-1.7
2019-Oct-15 14:00N 84°48' E 134°12'1 0.5 040 / 161011.9 -22.2-24.3-1.7
2019-Oct-15 13:00N 84°48' E 134°18'0 0.0 040 / 121011.6 -21.4-23.8-1.7
2019-Oct-15 12:00N 84°48' E 134°18'0 0.0 040 / 101011.3 -20.4-22.9-1.7
2019-Oct-15 11:00N 84°48' E 134°18'0 0.0 040 / 101011.3 -20.1-22.0-1.7
2019-Oct-15 10:00N 84°48' E 134°18'1 0.5 050 / 101010.9 -20.0-22.8-1.7
2019-Oct-15 09:00N 84°48' E 134°24'0 0.0 050 / 101010.610.8 -20.2-22.2-1.7
2019-Oct-15 08:00N 84°48' E 134°24'0 0.0 060 / 61010.0 -19.3-21.5-1.8
2019-Oct-15 07:00N 84°48' E 134°24'0 0.0 050 / 41009.6 -19.5-21.7-1.8
2019-Oct-15 06:00N 84°48' E 134°24'0 0.0 060 / 61009.110.8 -19.1-21.3-1.7
2019-Oct-15 05:00N 84°48' E 134°24'0 0.0 030 / 61008.8 -20.7-23.4-1.8
2019-Oct-15 04:00N 84°48' E 134°24'0 0.0 020 / 61008.5 -20.6-23.0-1.8
2019-Oct-15 03:00N 84°48' E 134°24'0 0.0 010 / 61008.110.8 -20.6-23.1-1.8
2019-Oct-15 02:00N 84°48' E 134°24'0 0.0 360 / 61007.9 -21.0-23.4-1.8
2019-Oct-15 01:00N 84°48' E 134°24'0 0.0 340 / 41007.8 -20.9-23.2-1.8
2019-Oct-15 00:00N 84°48' E 134°24'0 0.0 330 / 61007.710.8 -20.7-23.1-1.7
2019-Oct-14 23:00N 84°48' E 134°24'0 0.0 320 / 41007.3 -20.4-22.5-1.7
2019-Oct-14 22:00N 84°48' E 134°24'0 0.0 330 / 61007.1 -20.9-23.1-1.6
2019-Oct-14 21:00N 84°48' E 134°24'0 0.0 340 / 61006.8 5.4 -21.2-23.5-1.6
2019-Oct-14 20:00N 84°48' E 134°24'0 0.0 330 / 81006.5 -21.7-24.1-1.7
2019-Oct-14 19:00N 84°48' E 134°24'0 0.0 330 / 61006.3 -21.6-24.1-1.7
2019-Oct-14 18:00N 84°48' E 134°24'0 0.0 340 / 81006.1 -21.3-23.7-1.7
2019-Oct-14 17:00N 84°48' E 134°24'0 0.0 340 / 101005.9 -21.5-23.9-1.6
2019-Oct-14 16:00N 84°48' E 134°24'0 0.0 340 / 81005.9 -21.1-23.7-1.6
2019-Oct-14 15:00N 84°48' E 134°24'0 0.0 340 / 101005.6 -20.4-22.9-1.7
2019-Oct-14 14:00N 84°48' E 134°24'0 0.0 350 / 121005.4 -20.0-22.4-1.7
2019-Oct-14 13:00N 84°48' E 134°24'0 0.0 350 / 121005.5 -19.2-21.7-1.7
2019-Oct-14 12:00N 84°48' E 134°24'1 0.5 340 / 121005.510.8 -18.2-20.8-1.7
2019-Oct-14 11:00N 84°48' E 134°30'0 0.0 350 / 141005.2 -16.6-19.2-1.7
2019-Oct-14 10:00N 84°48' E 134°30'0 0.0 350 / 171004.7 -14.1-16.2-1.7
2019-Oct-14 09:00N 84°48' E 134°30'0 0.0 350 / 161004.310.8 -14.1-16.0-1.7
2019-Oct-14 08:00N 84°48' E 134°30'0 0.0 350 / 161003.6 -15.4-16.9-1.7
2019-Oct-14 07:00N 84°48' E 134°30'1 0.5 350 / 171003.1 -16.5-18.3-1.7
2019-Oct-14 06:00N 84°48' E 134°36'0 0.0 350 / 171002.610.8 -16.0-17.8-1.7
2019-Oct-14 05:00N 84°48' E 134°36'0 0.0 350 / 171002.1 -15.6-17.4-1.7
2019-Oct-14 04:00N 84°48' E 134°36'0 0.0 340 / 141001.9 -15.0-16.7-1.7
2019-Oct-14 03:00N 84°48' E 134°36'0 0.0 340 / 171001.2 5.4 -14.7-16.5-1.7
2019-Oct-14 02:00N 84°48' E 134°36'1 0.5 340 / 121000.8 -15.0-16.9-1.7
2019-Oct-14 01:00N 84°48' E 134°42'0 0.0 340 / 141000.4 -14.9-16.6-1.7
2019-Oct-14 00:00N 84°48' E 134°42'0 0.0 350 / 161000.110.8 -14.7-16.5-1.7
2019-Oct-13 23:00N 84°48' E 134°42'1 0.5 350 / 16999.8 -14.3-16.1-1.7
2019-Oct-13 22:00N 84°48' E 134°48'0 0.0 360 / 16999.5 -14.2-15.8-1.7
2019-Oct-13 21:00N 84°48' E 134°48'0 0.0 360 / 17999.010.8 -14.6-16.2-1.7
2019-Oct-13 20:00N 84°48' E 134°48'0 0.0 340 / 16998.8 -14.8-16.5-1.7
2019-Oct-13 19:00N 84°48' E 134°48'0 0.0 330 / 12998.7 -16.2-17.7-1.7
2019-Oct-13 18:00N 84°48' E 134°48'0 0.0 320 / 10998.8 -18.3-20.4-1.7
2019-Oct-13 17:00N 84°48' E 134°48'0 0.0 320 / 8999.3 -20.0-22.2-1.7
2019-Oct-13 16:00N 84°48' E 134°48'0 0.0 310 / 6999.9 -21.3-23.5-1.7
2019-Oct-13 15:00N 84°48' E 134°48'0 0.0 310 / 61000.4 -22.4-24.9-1.7
2019-Oct-13 14:00N 84°48' E 134°48'0 0.0 320 / 61001.1 -23.7-26.4-1.7
2019-Oct-13 13:00N 84°48' E 134°48'0 0.0 320 / 61001.4 -23.5-26.3-1.7
2019-Oct-13 12:00N 84°48' E 134°48'0 0.0 330 / 41001.8 -24.2-26.8-1.7
2019-Oct-13 11:00N 84°48' E 134°48'1 0.5 340 / 81001.9 -25.0-27.8-1.7
2019-Oct-13 10:00N 84°48' E 134°54'6 6.0 010 / 101001.9 -24.9-27.7-1.7
2019-Oct-13 09:00N 84°54' E 134°54'0 0.0 020 / 121001.810.8 -24.3-27.1-1.7
2019-Oct-13 08:00N 84°54' E 134°54'1 0.5 030 / 121001.4 -23.8-26.3-1.7
2019-Oct-13 07:00N 84°54' E 135°00'0 0.0 020 / 141001.2 -23.2-25.7-1.7
2019-Oct-13 06:00N 84°54' E 135°00'0 0.0 030 / 121001.310.8 -22.3-25.2-1.7
2019-Oct-13 05:00N 84°54' E 135°00'1 0.5 030 / 101001.1 -20.6-23.2-1.7
2019-Oct-13 04:00N 84°54' E 135°06'0 0.0 030 / 81001.0 -21.5-23.9-1.7
2019-Oct-13 03:00N 84°54' E 135°06'0 0.0 040 / 61000.910.8 -22.9-25.3-1.7
2019-Oct-13 02:00N 84°54' E 135°06'1 0.5 040 / 81000.8 -22.1-24.9-1.7
2019-Oct-13 01:00N 84°54' E 135°12'0 0.0 060 / 81000.2 -19.0-21.5-1.7
2019-Oct-13 00:00N 84°54' E 135°12'1 0.5 060 / 101000.110.8 -16.6-18.4-1.7
2019-Oct-12 23:00N 84°54' E 135°18'0 0.0 060 / 6999.6 -12.6-14.4-1.7
2019-Oct-12 22:00N 84°54' E 135°18'1 0.5 050 / 10999.2 -13.2-14.5-1.7
2019-Oct-12 21:00N 84°54' E 135°24'0 0.0 050 / 12998.710.8 -14.5-16.4-1.7
2019-Oct-12 20:00N 84°54' E 135°24'0 0.0 050 / 8998.5 -16.5-17.9-1.7
2019-Oct-12 19:00N 84°54' E 135°24'0 0.0 050 / 8998.3 -16.7-18.4-1.7
2019-Oct-12 18:00N 84°54' E 135°24'1 0.5 050 / 14997.8 -16.1-18.0-1.7
2019-Oct-12 17:00N 84°54' E 135°30'0 0.0 060 / 14997.6 -15.3-17.5-1.7
2019-Oct-12 16:00N 84°54' E 135°30'0 0.0 050 / 14997.4 -15.5-17.2-1.7
2019-Oct-12 15:00N 84°54' E 135°30'1 0.5 060 / 16997.2 -15.4-17.4-1.7
2019-Oct-12 14:00N 84°54' E 135°36'0 0.0 060 / 14997.1 -15.3-17.0-1.7
2019-Oct-12 13:00N 84°54' E 135°36'1 0.5 070 / 16996.8 -15.2-16.6-1.7
2019-Oct-12 12:00N 84°54' E 135°42'0 0.0 070 / 16997.2 -15.3-16.7-1.7
2019-Oct-12 11:00N 84°54' E 135°42'1 0.5 070 / 17997.4 -15.0-16.6-1.7
2019-Oct-12 10:00N 84°54' E 135°48'0 0.0 080 / 16997.8 -14.6-16.0-1.6
2019-Oct-12 09:00N 84°54' E 135°48'0 0.0 100 / 14998.2 5.4 -12.8-13.9-1.7
2019-Oct-12 08:00N 84°54' E 135°48'0 0.0 100 / 12998.7 -12.0-13.6-1.6
2019-Oct-12 07:00N 84°54' E 135°48'6 6.0 120 / 12999.5 -10.6-11.7-1.6
2019-Oct-12 06:00N 84°48' E 135°48'0 0.0 130 / 121000.4 5.4 -10.5-11.6-1.6
2019-Oct-12 05:00N 84°48' E 135°48'0 0.0 140 / 121001.6 -10.8-12.1-1.6
2019-Oct-12 04:00N 84°48' E 135°48'0 0.0 150 / 121002.9 -11.4-12.9-1.7
2019-Oct-12 03:00N 84°48' E 135°48'0 0.0 150 / 101003.827.0 -11.9-13.2-1.7
2019-Oct-12 02:00N 84°48' E 135°48'0 0.0 170 / 101004.6 -11.7-12.9-1.6
2019-Oct-12 01:00N 84°48' E 135°48'0 0.0 160 / 81005.6 -11.0-12.3-1.6
2019-Oct-12 00:00N 84°48' E 135°48'0 0.0 170 / 81006.5 0.3 -11.5-12.9-1.7
2019-Oct-11 23:00N 84°48' E 135°48'0 0.0 210 / 21007.8 -11.7-13.1-1.7
2019-Oct-11 22:00N 84°48' E 135°48'0 0.0 260 / 41008.2 -12.4-13.8-1.7
2019-Oct-11 21:00N 84°48' E 135°48'0 0.0 270 / 61008.827.0 -13.1-14.6-1.6
2019-Oct-11 20:00N 84°48' E 135°48'0 0.0 290 / 81009.3 -13.4-15.0-1.7
2019-Oct-11 19:00N 84°48' E 135°48'0 0.0 280 / 101009.7 -13.9-15.4-1.7
2019-Oct-11 18:00N 84°48' E 135°48'0 0.0 290 / 101010.0 -13.5-15.5-1.7
2019-Oct-11 17:00N 84°48' E 135°48'1 0.5 270 / 121010.3 -12.8-14.5-1.7
2019-Oct-11 16:00N 84°48' E 135°42'0 0.0 300 / 121010.7 -11.5-13.1-1.7
2019-Oct-11 15:00N 84°48' E 135°42'0 0.0 300 / 161011.0 -11.3-12.9-1.7
2019-Oct-11 14:00N 84°48' E 135°42'0 0.0 300 / 161011.3 -12.0-13.4-1.7
2019-Oct-11 13:00N 84°48' E 135°42'0 0.0 310 / 141011.7 -12.5-13.8-1.7
2019-Oct-11 12:00N 84°48' E 135°42'6 2.0 310 / 121011.9 -13.0-14.3-1.7
2019-Oct-11 09:00N 84°54' E 135°42'1 0.5 320 / 141012.127.0 -14.8-16.4-1.7
2019-Oct-11 08:00N 84°54' E 135°36'0 0.0 320 / 161012.2 -14.7-16.5-1.7
2019-Oct-11 07:00N 84°54' E 135°36'0 0.0 310 / 171011.8 -15.2-17.2-1.7
2019-Oct-11 06:00N 84°54' E 135°36'1 0.5 300 / 171011.927.0 -15.2-17.2-1.7
2019-Oct-11 05:00N 84°54' E 135°30'0 0.0 290 / 161012.3 -15.9-17.6-1.7
2019-Oct-11 04:00N 84°54' E 135°30'0 0.0 300 / 161012.5 -16.7-18.9-1.7
2019-Oct-11 03:00N 84°54' E 135°30'0 0.0 320 / 121012.827.0 -16.7-18.8-1.7
2019-Oct-11 02:00N 84°54' E 135°30'0 0.0 320 / 121012.7 -16.8-18.7-1.7
2019-Oct-11 01:00N 84°54' E 135°30'1 0.5 310 / 101012.8 -16.6-18.3-1.7
2019-Oct-11 00:00N 84°54' E 135°24'0 0.0 300 / 141012.910.8 -15.7-17.5-1.7
2019-Oct-10 23:00N 84°54' E 135°24'0 0.0 300 / 161013.1 -15.6-17.6-1.7
2019-Oct-10 22:00N 84°54' E 135°24'1 0.5 280 / 141013.5 -14.9-16.6-1.7
2019-Oct-10 21:00N 84°54' E 135°18'0 0.0 270 / 141013.910.8 -14.9-16.8-1.7
2019-Oct-10 20:00N 84°54' E 135°18'0 0.0 290 / 121014.4 -15.2-17.0-1.7
2019-Oct-10 19:00N 84°54' E 135°18'1 0.5 280 / 141014.5 -14.2-15.7-1.6
2019-Oct-10 18:00N 84°54' E 135°12'0 0.0 270 / 101014.9 -14.2-15.9-1.7
2019-Oct-10 17:00N 84°54' E 135°12'0 0.0 290 / 81015.4 -15.6-17.2-1.7
2019-Oct-10 16:00N 84°54' E 135°12'0 0.0 330 / 81015.5 -16.4-18.3-1.7
2019-Oct-10 15:00N 84°54' E 135°12'0 0.0 350 / 61015.5 -15.7-17.4-1.7
2019-Oct-10 14:00N 84°54' E 135°12'0 0.0 360 / 61015.4 -14.8-16.4-1.7
2019-Oct-10 13:00N 84°54' E 135°12'1 0.5 360 / 101015.1 -13.6-15.5-1.7
2019-Oct-10 12:00N 84°54' E 135°18'0 0.0 360 / 101014.6 -13.3-14.8-1.7
2019-Oct-10 11:00N 84°54' E 135°18'0 0.0 020 / 101014.3 -13.7-15.1-1.7
2019-Oct-10 10:00N 84°54' E 135°18'0 0.0 020 / 121013.8 -12.7-14.4-1.7
2019-Oct-10 09:00N 84°54' E 135°18'1 0.5 040 / 121013.327.0 -13.2-14.4-1.7
2019-Oct-10 08:00N 84°54' E 135°24'0 0.0 050 / 141012.7 -13.3-15.1-1.7
2019-Oct-10 07:00N 84°54' E 135°24'0 0.0 060 / 121012.1 -12.9-14.6-1.7
2019-Oct-10 06:00N 84°54' E 135°24'0 0.0 060 / 141011.510.8 -10.8-12.0-1.7
2019-Oct-10 05:00N 84°54' E 135°24'1 0.5 060 / 161010.4 -11.2-12.3-1.7
2019-Oct-10 04:00N 84°54' E 135°30'0 0.0 060 / 161009.5 -10.1-11.2-1.7
2019-Oct-10 03:00N 84°54' E 135°30'1 0.5 060 / 141008.910.8 -9.7-11.1-1.7
2019-Oct-10 02:00N 84°54' E 135°36'0 0.0 060 / 121008.3 -9.4-10.5-1.7
2019-Oct-10 01:00N 84°54' E 135°36'1 1.1 060 / 141007.7 -11.5-12.7-1.7
2019-Oct-10 00:00N 84°54' E 135°48'1 0.5 060 / 121007.4 2.2 -13.1-14.2-1.7
2019-Oct-09 23:00N 84°54' E 135°54'1 0.0 070 / 81007.1 -14.9-16.6-1.7
2019-Oct-09 10:00N 84°54' E 136°00'0 0.0 010 / 41007.5 -12.2-13.6-1.7
2019-Oct-09 09:00N 84°54' E 136°00'1 0.5 360 / 41007.427.0 -12.8-13.9-1.7
2019-Oct-09 08:00N 84°54' E 135°54'0 0.0 360 / 61007.3 -13.3-14.9-1.6
2019-Oct-09 07:00N 84°54' E 135°54'1 0.5 360 / 61007.0 -13.4-15.0-1.7
2019-Oct-09 06:00N 84°54' E 136°00'0 0.0 360 / 81006.9 5.4 -13.0-14.6-1.7
2019-Oct-09 05:00N 84°54' E 136°00'0 0.0 360 / 101007.1 -12.1-13.4-1.7
2019-Oct-09 04:00N 84°54' E 136°00'0 0.0 360 / 121006.5 -11.6-12.7-1.7
2019-Oct-09 03:00N 84°54' E 136°00'0 0.0 010 / 121006.127.0 -10.2-11.5-1.7
2019-Oct-09 02:00N 84°54' E 136°00'1 0.5 360 / 121006.3 -8.8-10.0-1.7
2019-Oct-09 01:00N 84°54' E 136°06'0 0.0 360 / 121005.5 -8.1-8.7-1.7
2019-Oct-09 00:00N 84°54' E 136°06'0 0.0 350 / 81005.4 -8.2-9.1-1.7
2019-Oct-08 23:00N 84°54' E 136°06'1 0.5 360 / 121005.2 -8.1-9.2-1.7
2019-Oct-08 22:00N 84°54' E 136°12'0 0.0 350 / 101005.0 -7.8-8.5-1.7
2019-Oct-08 21:00N 84°54' E 136°12'0 0.0 350 / 121004.7 1.1 -7.7-8.7-1.7
2019-Oct-08 20:00N 84°54' E 136°12'0 0.0 350 / 121004.3 -7.9-8.8-1.7
2019-Oct-08 19:00N 84°54' E 136°12'0 0.0 340 / 121004.0 -8.0-8.8-1.7
2019-Oct-08 18:00N 84°54' E 136°12'0 0.0 330 / 121003.6 -8.5-9.4-1.7
2019-Oct-08 17:00N 84°54' E 136°12'0 0.0 330 / 121003.4 -8.5-9.3-1.7
2019-Oct-08 16:00N 84°54' E 136°12'0 0.0 340 / 141003.2 -8.0-9.0-1.7
2019-Oct-08 15:00N 84°54' E 136°12'0 0.0 330 / 121003.0 -7.6-8.3-1.7
2019-Oct-08 14:00N 84°54' E 136°12'6 6.0 340 / 141002.9 -7.0-7.9-1.7
2019-Oct-08 13:00N 85°00' E 136°12'0 0.0 330 / 161002.6 -6.2-7.5-1.7
2019-Oct-08 12:00N 85°00' E 136°12'0 0.0 330 / 161002.627.0 -5.3-6.6-1.7
2019-Oct-08 11:00N 85°00' E 136°12'0 0.0 340 / 171002.5 -4.1-4.6-1.7
2019-Oct-08 10:00N 85°00' E 136°12'0 0.0 310 / 191002.5 -2.0-2.4-1.7
2019-Oct-08 09:00N 85°00' E 136°12'0 0.0 290 / 231002.5 1.1 -2.4-2.7-1.7
2019-Oct-08 08:00N 85°00' E 136°12'1 0.5 290 / 251003.0 -2.5-2.9-1.7
2019-Oct-08 07:00N 85°00' E 136°06'1 0.5 290 / 271003.4 -3.0-3.2-1.7
2019-Oct-08 06:00N 85°00' E 136°00'0 0.0 280 / 291004.2 1.1 -3.3-3.6-1.7
2019-Oct-08 05:00N 85°00' E 136°00'1 0.5 280 / 291005.2 -3.4-3.8-1.7
2019-Oct-08 04:00N 85°00' E 135°54'1 0.5 280 / 311006.0 -3.8-4.4-1.7
2019-Oct-08 03:00N 85°00' E 135°48'1 0.5 270 / 311007.2 2.2 -3.9-4.4-1.7
2019-Oct-08 02:00N 85°00' E 135°42'1 0.5 270 / 291008.2 -4.2-4.8-1.7
2019-Oct-08 01:00N 85°00' E 135°36'1 0.5 270 / 291009.3 -4.6-5.2-1.7
2019-Oct-08 00:00N 85°00' E 135°30'1 1.0 270 / 271010.710.8 -6.0-6.8-1.7
2019-Oct-07 23:00N 85°00' E 135°18'0 0.0 280 / 291011.6 -6.9-7.8-1.7
2019-Oct-07 22:00N 85°00' E 135°18'1 0.5 270 / 251012.4 -7.4-8.5-1.7
2019-Oct-07 21:00N 85°00' E 135°12'1 0.5 260 / 251013.227.0 -8.0-8.9-1.7
2019-Oct-07 20:00N 85°00' E 135°06'1 0.5 270 / 251013.9 -8.1-9.4-1.7
2019-Oct-07 19:00N 85°00' E 135°00'0 0.0 270 / 231014.9 -8.5-9.3-1.7
2019-Oct-07 18:00N 85°00' E 135°00'6 6.0 270 / 231015.5 -8.8-9.7-1.7
2019-Oct-07 17:00N 85°06' E 134°54'0 0.0 270 / 211016.0 -8.9-9.9-1.7
2019-Oct-07 16:00N 85°06' E 134°54'1 0.5 280 / 211016.6 -8.9-10.1-1.6
2019-Oct-07 15:00N 85°06' E 134°48'   270 / 211017.1 -9.1-10.0-1.7

Dump ship's entire track history